Time;durP1;ratioP1;P1;durP2;ratioP2;P2;SDS_P1;SDS_P2;PMS_P1;PMS_P2;Temp;Humidity;BMP_temperature;BMP_pressure;BME280_temperature;BME280_humidity;BME280_pressure;Samples;Min_cycle;Max_cycle;Signal;HPM_P1;HPM_P2
2023/04/30 00:00:27;;;;;;;9.60;7.27;;;;;;;;;;5079000;28;20906;-67
2023/04/30 00:02:54;;;;;;;8.90;7.60;;;;;;;;;;5080768;28;20453;-64
2023/04/30 00:05:20;;;;;;;13.70;7.40;;;;;;;;;;5078225;28;20530;-65
2023/04/30 00:07:47;;;;;;;10.00;7.10;;;;;;;;;;5081912;28;20491;-65
2023/04/30 00:10:13;;;;;;;10.13;7.10;;;;;;;;;;5075274;28;20448;-65
2023/04/30 00:12:41;;;;;;;10.53;7.00;;;;;;;;;;5077369;28;20466;-64
2023/04/30 00:15:08;;;;;;;9.13;7.10;;;;;;;;;;5078838;27;20722;-64
2023/04/30 00:17:34;;;;;;;9.90;8.13;;;;;;;;;;5083327;28;20946;-64
2023/04/30 00:20:01;;;;;;;10.07;7.73;;;;;;;;;;5088313;28;20447;-65
2023/04/30 00:22:27;;;;;;;12.30;10.00;;;;;;;;;;5084472;28;20567;-65
2023/04/30 00:24:53;;;;;;;13.50;7.57;;;;;;;;;;5089155;28;20865;-65
2023/04/30 00:27:20;;;;;;;9.27;7.47;;;;;;;;;;5084930;28;20480;-65
2023/04/30 00:29:48;;;;;;;10.73;7.67;;;;;;;;;;5088042;28;20474;-66
2023/04/30 00:32:14;;;;;;;9.23;7.80;;;;;;;;;;5084643;28;20746;-65
2023/04/30 00:34:41;;;;;;;15.23;8.00;;;;;;;;;;5092091;28;20451;-65
2023/04/30 00:37:07;;;;;;;10.83;8.70;;;;;;;;;;5087060;28;20523;-65
2023/04/30 00:39:33;;;;;;;14.20;7.40;;;;;;;;;;5083329;28;20502;-65
2023/04/30 00:42:01;;;;;;;14.87;8.70;;;;;;;;;;5084516;28;20520;-66
2023/04/30 00:44:27;;;;;;;15.30;7.47;;;;;;;;;;5086041;28;20447;-66
2023/04/30 00:46:55;;;;;;;15.30;7.13;;;;;;;;;;5083339;28;20656;-66
2023/04/30 00:49:21;;;;;;;14.73;8.07;;;;;;;;;;5083077;28;20524;-66
2023/04/30 00:51:48;;;;;;;13.70;8.30;;;;;;;;;;5093810;28;20517;-66
2023/04/30 00:54:15;;;;;;;11.83;6.30;;;;;;;;;;5084436;28;20499;-65
2023/04/30 00:56:41;;;;;;;10.70;7.13;;;;;;;;;;5080418;28;20508;-66
2023/04/30 00:59:08;;;;;;;15.07;7.47;;;;;;;;;;5084398;28;20983;-66
2023/04/30 01:01:34;;;;;;;10.27;7.40;;;;;;;;;;5083245;28;20546;-66
2023/04/30 01:04:02;;;;;;;8.90;6.30;;;;;;;;;;5083180;28;20471;-65
2023/04/30 01:06:28;;;;;;;13.60;7.20;;;;;;;;;;5084285;28;21007;-66
2023/04/30 01:08:56;;;;;;;8.13;5.53;;;;;;;;;;5086734;28;20455;-66
2023/04/30 01:11:26;;;;;;;9.87;6.63;;;;;;;;;;5083466;28;20467;-65
2023/04/30 01:13:55;;;;;;;10.00;6.70;;;;;;;;;;5083976;28;20507;-67
2023/04/30 01:16:25;;;;;;;8.30;6.33;;;;;;;;;;5086339;28;21077;-66
2023/04/30 01:18:54;;;;;;;9.30;5.83;;;;;;;;;;5086302;28;20518;-66
2023/04/30 01:21:23;;;;;;;8.57;6.40;;;;;;;;;;5084922;28;20499;-65
2023/04/30 01:24:06;;;;;;;9.53;6.37;;;;;;;;;;5087706;28;20452;-66
2023/04/30 01:26:42;;;;;;;6.60;5.73;;;;;;;;;;5076274;28;20499;-66
2023/04/30 01:29:10;;;;;;;16.30;7.67;;;;;;;;;;5082510;28;20502;-65
2023/04/30 01:31:36;;;;;;;12.80;6.67;;;;;;;;;;5082802;28;20483;-66
2023/04/30 01:34:03;;;;;;;9.40;6.70;;;;;;;;;;5087122;28;20482;-65
2023/04/30 01:36:41;;;;;;;10.20;7.70;;;;;;;;;;5085611;28;20952;-65
2023/04/30 01:39:23;;;;;;;10.90;6.73;;;;;;;;;;5083863;28;20495;-65
2023/04/30 01:41:54;;;;;;;11.50;6.97;;;;;;;;;;5081744;28;20491;-65
2023/04/30 01:44:41;;;;;;;11.00;7.87;;;;;;;;;;5086954;28;20538;-66
2023/04/30 01:47:09;;;;;;;10.27;7.07;;;;;;;;;;5083513;28;20483;-66
2023/04/30 01:49:40;;;;;;;7.13;6.43;;;;;;;;;;5085853;28;20494;-65
2023/04/30 01:52:11;;;;;;;9.27;7.10;;;;;;;;;;5083469;28;20499;-66
2023/04/30 01:54:41;;;;;;;14.70;7.27;;;;;;;;;;5081731;28;20495;-66
2023/04/30 01:57:11;;;;;;;14.40;6.90;;;;;;;;;;5081952;28;20506;-66
2023/04/30 01:59:39;;;;;;;8.03;6.90;;;;;;;;;;5087147;28;20520;-66
2023/04/30 02:02:06;;;;;;;12.77;8.00;;;;;;;;;;5085547;28;20483;-65
2023/04/30 02:04:32;;;;;;;13.07;7.37;;;;;;;;;;5082658;28;20463;-65
2023/04/30 02:06:59;;;;;;;10.63;6.70;;;;;;;;;;5090342;28;20495;-65
2023/04/30 02:09:25;;;;;;;11.53;8.20;;;;;;;;;;5088795;28;20475;-65
2023/04/30 02:11:51;;;;;;;8.30;6.80;;;;;;;;;;5087712;28;20510;-65
2023/04/30 02:14:18;;;;;;;13.27;6.83;;;;;;;;;;5084825;28;20480;-65
2023/04/30 02:16:46;;;;;;;9.90;6.87;;;;;;;;;;5084827;28;20535;-65
2023/04/30 02:19:12;;;;;;;9.20;6.70;;;;;;;;;;5082015;28;20567;-65
2023/04/30 02:21:38;;;;;;;9.90;7.20;;;;;;;;;;5081477;28;20917;-65
2023/04/30 02:24:05;;;;;;;10.47;7.33;;;;;;;;;;5093048;28;20523;-65
2023/04/30 02:26:32;;;;;;;10.47;7.00;;;;;;;;;;5085910;28;20474;-66
2023/04/30 02:28:58;;;;;;;12.00;6.27;;;;;;;;;;5081881;28;20483;-65
2023/04/30 02:31:24;;;;;;;7.47;6.57;;;;;;;;;;5085784;28;20515;-65
2023/04/30 02:33:52;;;;;;;8.50;6.47;;;;;;;;;;5085433;28;20895;-65
2023/04/30 02:36:18;;;;;;;8.63;6.43;;;;;;;;;;5081173;28;20502;-65
2023/04/30 02:38:45;;;;;;;12.10;6.67;;;;;;;;;;5089519;28;20519;-66
2023/04/30 02:41:12;;;;;;;12.67;7.10;;;;;;;;;;5088142;28;20978;-66
2023/04/30 02:43:38;;;;;;;10.73;6.43;;;;;;;;;;5082466;28;20570;-67
2023/04/30 02:46:05;;;;;;;11.07;6.80;;;;;;;;;;5081221;28;20479;-66
2023/04/30 02:48:31;;;;;;;9.07;6.63;;;;;;;;;;5085724;28;20472;-67
2023/04/30 02:50:59;;;;;;;12.47;5.97;;;;;;;;;;5085181;28;20559;-66
2023/04/30 02:53:25;;;;;;;8.40;7.30;;;;;;;;;;5073093;28;20486;-66
2023/04/30 02:55:52;;;;;;;11.90;7.20;;;;;;;;;;5080790;28;20547;-66
2023/04/30 02:58:18;;;;;;;9.63;6.97;;;;;;;;;;5089140;28;20497;-66
2023/04/30 03:00:44;;;;;;;11.13;7.27;;;;;;;;;;5080438;28;21044;-65
2023/04/30 03:03:11;;;;;;;8.90;6.83;;;;;;;;;;5082611;28;20483;-66
2023/04/30 03:05:37;;;;;;;11.43;7.90;;;;;;;;;;5082802;28;20492;-65
2023/04/30 03:08:05;;;;;;;10.70;6.87;;;;;;;;;;5081348;28;20492;-65
2023/04/30 03:10:31;;;;;;;11.87;6.50;;;;;;;;;;5089202;28;20495;-65
2023/04/30 03:12:58;;;;;;;9.00;6.03;;;;;;;;;;5088030;28;20486;-65
2023/04/30 03:15:24;;;;;;;9.93;6.40;;;;;;;;;;5077326;28;20452;-66
2023/04/30 03:17:51;;;;;;;13.47;7.00;;;;;;;;;;5085415;28;20443;-65
2023/04/30 03:20:17;;;;;;;14.17;7.10;;;;;;;;;;5082906;28;20512;-66
2023/04/30 03:22:44;;;;;;;8.80;6.83;;;;;;;;;;5083393;28;20456;-66
2023/04/30 03:25:12;;;;;;;8.50;6.67;;;;;;;;;;5080213;28;20452;-66
2023/04/30 03:27:38;;;;;;;9.13;6.77;;;;;;;;;;5091397;28;20495;-66
2023/04/30 03:30:06;;;;;;;9.80;6.40;;;;;;;;;;5082539;28;20567;-66
2023/04/30 03:32:32;;;;;;;11.03;6.00;;;;;;;;;;5084131;28;20472;-66
2023/04/30 03:35:00;;;;;;;9.40;6.13;;;;;;;;;;5082963;28;20475;-66
2023/04/30 03:37:26;;;;;;;8.27;5.57;;;;;;;;;;5080258;28;20547;-66
2023/04/30 03:39:52;;;;;;;7.97;6.30;;;;;;;;;;5086582;28;20563;-66
2023/04/30 03:42:21;;;;;;;8.17;6.00;;;;;;;;;;5087292;28;20524;-65
2023/04/30 03:44:47;;;;;;;14.50;6.13;;;;;;;;;;5086705;28;20455;-66
2023/04/30 03:47:14;;;;;;;14.90;6.83;;;;;;;;;;5082616;28;20566;-66
2023/04/30 03:49:40;;;;;;;12.67;6.30;;;;;;;;;;5087602;28;20452;-66
2023/04/30 03:52:06;;;;;;;10.00;6.20;;;;;;;;;;5088548;28;20548;-66
2023/04/30 03:54:33;;;;;;;10.73;6.03;;;;;;;;;;5080894;28;20474;-66
2023/04/30 03:57:03;;;;;;;15.53;6.13;;;;;;;;;;5080193;28;20948;-66
2023/04/30 03:59:31;;;;;;;10.40;6.60;;;;;;;;;;5081252;28;20491;-66
2023/04/30 04:01:57;;;;;;;8.97;5.73;;;;;;;;;;5085234;28;20565;-66
2023/04/30 04:04:24;;;;;;;11.20;6.60;;;;;;;;;;5082920;28;20535;-66
2023/04/30 04:06:50;;;;;;;10.03;5.93;;;;;;;;;;5091065;28;20575;-66
2023/04/30 04:09:16;;;;;;;9.57;6.20;;;;;;;;;;5086479;28;20498;-65
2023/04/30 04:11:43;;;;;;;8.27;6.17;;;;;;;;;;5081491;28;21075;-66
2023/04/30 04:14:09;;;;;;;11.10;6.90;;;;;;;;;;5084442;28;20436;-66
2023/04/30 04:16:37;;;;;;;8.33;6.50;;;;;;;;;;5084677;28;20472;-65
2023/04/30 04:19:03;;;;;;;13.00;6.53;;;;;;;;;;5082433;28;20503;-65
2023/04/30 04:21:30;;;;;;;12.33;6.67;;;;;;;;;;5087768;28;20562;-65
2023/04/30 04:23:56;;;;;;;9.60;6.37;;;;;;;;;;5088732;28;20970;-65
2023/04/30 04:26:24;;;;;;;6.80;6.10;;;;;;;;;;5086266;28;20598;-65
2023/04/30 04:28:50;;;;;;;9.23;6.90;;;;;;;;;;5084067;28;20455;-65
2023/04/30 04:31:17;;;;;;;8.10;6.40;;;;;;;;;;5082515;28;20924;-65
2023/04/30 04:33:45;;;;;;;12.77;8.17;;;;;;;;;;5081368;28;20471;-65
2023/04/30 04:36:12;;;;;;;10.87;7.90;;;;;;;;;;5082084;28;20467;-66
2023/04/30 04:38:39;;;;;;;9.57;8.50;;;;;;;;;;5077947;28;20520;-66
2023/04/30 04:41:06;;;;;;;7.90;6.33;;;;;;;;;;5079769;28;20888;-65
2023/04/30 04:43:32;;;;;;;9.23;7.17;;;;;;;;;;5084785;28;20478;-65
2023/04/30 04:45:59;;;;;;;9.50;6.77;;;;;;;;;;5080568;28;20491;-65
2023/04/30 04:48:25;;;;;;;12.43;5.70;;;;;;;;;;5086666;28;20499;-65
2023/04/30 04:50:51;;;;;;;12.03;6.87;;;;;;;;;;5085457;28;20479;-65
2023/04/30 04:53:19;;;;;;;11.03;7.00;;;;;;;;;;5080141;28;20472;-65
2023/04/30 04:55:46;;;;;;;9.00;6.70;;;;;;;;;;5075168;28;20537;-65
2023/04/30 04:58:12;;;;;;;11.00;6.77;;;;;;;;;;5080677;28;20469;-65
2023/04/30 05:00:38;;;;;;;13.27;7.47;;;;;;;;;;5080603;28;20543;-65
2023/04/30 05:03:05;;;;;;;10.10;7.10;;;;;;;;;;5080096;28;20463;-65
2023/04/30 05:05:31;;;;;;;17.80;8.50;;;;;;;;;;5088642;28;20478;-65
2023/04/30 05:07:58;;;;;;;12.07;6.73;;;;;;;;;;5091963;28;20451;-65
2023/04/30 05:10:25;;;;;;;13.70;5.80;;;;;;;;;;5082648;28;20542;-65
2023/04/30 05:12:54;;;;;;;7.47;5.80;;;;;;;;;;5088943;28;20471;-65
2023/04/30 05:15:21;;;;;;;7.83;5.97;;;;;;;;;;5087106;28;20447;-65
2023/04/30 05:17:47;;;;;;;7.93;5.50;;;;;;;;;;5084323;28;20451;-65
2023/04/30 05:20:14;;;;;;;7.57;4.77;;;;;;;;;;5088589;28;20763;-66
2023/04/30 05:22:40;;;;;;;8.80;4.73;;;;;;;;;;5088583;28;20448;-66
2023/04/30 05:25:07;;;;;;;7.17;5.10;;;;;;;;;;5091309;28;20483;-65
2023/04/30 05:27:35;;;;;;;6.13;4.93;;;;;;;;;;5082179;28;20482;-66
2023/04/30 05:30:02;;;;;;;5.17;4.00;;;;;;;;;;5084381;28;20501;-67
2023/04/30 05:32:28;;;;;;;8.63;4.93;;;;;;;;;;5083890;28;20482;-66
2023/04/30 05:34:54;;;;;;;7.10;4.40;;;;;;;;;;5083417;28;20444;-67
2023/04/30 05:37:21;;;;;;;14.70;5.90;;;;;;;;;;5091388;28;20507;-66
2023/04/30 05:39:48;;;;;;;9.67;5.50;;;;;;;;;;5082446;28;20518;-66
2023/04/30 05:42:14;;;;;;;7.87;4.90;;;;;;;;;;5085090;28;20600;-66
2023/04/30 05:44:42;;;;;;;14.00;4.67;;;;;;;;;;5086876;28;20440;-65
2023/04/30 05:47:08;;;;;;;10.60;5.57;;;;;;;;;;5084870;28;20507;-66
2023/04/30 05:49:35;;;;;;;8.47;5.03;;;;;;;;;;5082306;28;20567;-65
2023/04/30 05:52:02;;;;;;;7.27;4.27;;;;;;;;;;5082943;28;20476;-65
2023/04/30 05:54:28;;;;;;;13.13;4.57;;;;;;;;;;5084415;28;20456;-66
2023/04/30 05:56:55;;;;;;;7.70;4.93;;;;;;;;;;5083212;28;20951;-65
2023/04/30 05:59:21;;;;;;;7.70;4.00;;;;;;;;;;5082902;28;20514;-66
2023/04/30 06:01:49;;;;;;;8.43;3.90;;;;;;;;;;5083806;28;20503;-66
2023/04/30 06:04:16;;;;;;;11.00;4.50;;;;;;;;;;5091231;28;20486;-66
2023/04/30 06:06:42;;;;;;;9.30;4.50;;;;;;;;;;5082625;28;20468;-67
2023/04/30 06:09:10;;;;;;;9.10;4.50;;;;;;;;;;5086680;28;20475;-65
2023/04/30 06:11:37;;;;;;;12.50;4.63;;;;;;;;;;5080005;28;21019;-64
2023/04/30 06:14:03;;;;;;;12.63;4.77;;;;;;;;;;5083714;28;20452;-65
2023/04/30 06:16:30;;;;;;;9.13;4.33;;;;;;;;;;5081665;28;20938;-65
2023/04/30 06:18:58;;;;;;;8.53;4.53;;;;;;;;;;5084148;28;20455;-65
2023/04/30 06:21:25;;;;;;;8.43;4.73;;;;;;;;;;5081539;28;20535;-64
2023/04/30 06:23:51;;;;;;;12.47;4.67;;;;;;;;;;5081728;28;20459;-65
2023/04/30 06:26:18;;;;;;;7.37;3.60;;;;;;;;;;5086781;28;20525;-65
2023/04/30 06:28:45;;;;;;;8.20;3.83;;;;;;;;;;5084119;28;20486;-65
2023/04/30 06:31:11;;;;;;;9.97;4.03;;;;;;;;;;5081343;28;20508;-65
2023/04/30 06:33:38;;;;;;;12.47;4.53;;;;;;;;;;5081579;28;20531;-64
2023/04/30 06:36:06;;;;;;;9.87;4.97;;;;;;;;;;5082287;28;20472;-65
2023/04/30 06:38:32;;;;;;;9.47;4.47;;;;;;;;;;5081151;28;20480;-64
2023/04/30 06:40:59;;;;;;;8.17;3.50;;;;;;;;;;5079463;28;20512;-65
2023/04/30 06:43:25;;;;;;;13.23;3.93;;;;;;;;;;5084316;28;20492;-65
2023/04/30 06:45:51;;;;;;;6.63;3.67;;;;;;;;;;5082333;28;20512;-65
2023/04/30 06:48:18;;;;;;;12.87;4.10;;;;;;;;;;5080171;28;20893;-65
2023/04/30 06:50:44;;;;;;;7.37;3.63;;;;;;;;;;5088052;28;20467;-65
2023/04/30 06:53:12;;;;;;;9.87;4.03;;;;;;;;;;5082410;28;20497;-64
2023/04/30 06:55:39;;;;;;;11.57;3.33;;;;;;;;;;5086891;28;20483;-64
2023/04/30 06:58:06;;;;;;;10.90;3.67;;;;;;;;;;5085495;28;20495;-64
2023/04/30 07:00:32;;;;;;;8.00;3.20;;;;;;;;;;5084686;28;20492;-63
2023/04/30 07:03:01;;;;;;;10.73;3.40;;;;;;;;;;5080056;28;20451;-64
2023/04/30 07:05:27;;;;;;;9.73;3.10;;;;;;;;;;5080237;28;20471;-64
2023/04/30 07:07:54;;;;;;;10.80;3.60;;;;;;;;;;5088233;28;20486;-64
2023/04/30 07:10:22;;;;;;;7.53;2.90;;;;;;;;;;5079633;28;20448;-64
2023/04/30 07:12:48;;;;;;;10.50;2.97;;;;;;;;;;5082906;28;20456;-65
2023/04/30 07:15:15;;;;;;;11.17;3.43;;;;;;;;;;5084294;28;20480;-64
2023/04/30 07:17:41;;;;;;;6.57;3.00;;;;;;;;;;5079628;28;20455;-64
2023/04/30 07:20:08;;;;;;;5.77;2.90;;;;;;;;;;5079769;28;20487;-65
2023/04/30 07:22:35;;;;;;;7.10;2.97;;;;;;;;;;5086426;28;20476;-65
2023/04/30 07:25:02;;;;;;;6.90;3.03;;;;;;;;;;5079919;28;20448;-64
2023/04/30 07:27:30;;;;;;;5.73;2.53;;;;;;;;;;5079922;28;20497;-64
2023/04/30 07:29:56;;;;;;;8.80;3.40;;;;;;;;;;5079647;28;20956;-64
2023/04/30 07:32:26;;;;;;;8.80;3.27;;;;;;;;;;5080561;28;20507;-64
2023/04/30 07:34:52;;;;;;;9.53;3.90;;;;;;;;;;5081784;28;20459;-65
2023/04/30 07:37:19;;;;;;;12.10;4.13;;;;;;;;;;5084278;28;20507;-64
2023/04/30 07:39:45;;;;;;;10.20;3.30;;;;;;;;;;5070695;28;20531;-64
2023/04/30 07:42:11;;;;;;;5.97;3.57;;;;;;;;;;5086363;28;20488;-64
2023/04/30 07:44:40;;;;;;;13.53;3.30;;;;;;;;;;5080828;28;20448;-64
2023/04/30 07:47:06;;;;;;;5.57;3.37;;;;;;;;;;5080190;28;20484;-64
2023/04/30 07:49:33;;;;;;;8.10;3.43;;;;;;;;;;5080109;28;20486;-64
2023/04/30 07:52:00;;;;;;;8.27;3.70;;;;;;;;;;5080632;28;20486;-64
2023/04/30 07:54:26;;;;;;;5.77;2.67;;;;;;;;;;5080899;28;21155;-65
2023/04/30 07:56:53;;;;;;;10.87;4.70;;;;;;;;;;5079829;28;20496;-64
2023/04/30 07:59:20;;;;;;;14.50;3.57;;;;;;;;;;5089288;28;20490;-64
2023/04/30 08:01:48;;;;;;;9.60;4.13;;;;;;;;;;5080568;28;20495;-64
2023/04/30 08:04:16;;;;;;;10.70;3.47;;;;;;;;;;5081209;28;20475;-64
2023/04/30 08:06:42;;;;;;;8.60;3.90;;;;;;;;;;5077901;28;20464;-64
2023/04/30 08:09:09;;;;;;;11.67;4.17;;;;;;;;;;5079614;28;20488;-64
2023/04/30 08:11:35;;;;;;;5.90;3.10;;;;;;;;;;5073533;28;20480;-64
2023/04/30 08:14:02;;;;;;;11.20;4.00;;;;;;;;;;5080421;28;20555;-64
2023/04/30 08:16:28;;;;;;;10.07;4.00;;;;;;;;;;5079412;28;20484;-64
2023/04/30 08:18:56;;;;;;;10.50;3.63;;;;;;;;;;5082340;28;20488;-69
2023/04/30 08:21:22;;;;;;;9.17;3.37;;;;;;;;;;5077403;28;20935;-68
2023/04/30 08:23:49;;;;;;;6.70;3.47;;;;;;;;;;5076606;28;20448;-68
2023/04/30 08:26:15;;;;;;;7.20;3.30;;;;;;;;;;5080706;28;20729;-68
2023/04/30 08:28:42;;;;;;;8.60;3.00;;;;;;;;;;5086577;28;20487;-69
2023/04/30 08:31:10;;;;;;;5.93;3.00;;;;;;;;;;5071246;28;20504;-68
2023/04/30 08:33:36;;;;;;;8.73;3.10;;;;;;;;;;5066681;28;20538;-68
2023/04/30 08:36:04;;;;;;;11.10;3.47;;;;;;;;;;5069625;28;20510;-69
2023/04/30 08:38:30;;;;;;;6.47;2.80;;;;;;;;;;5082251;28;20524;-68
2023/04/30 08:41:09;;;;;;;5.33;2.97;;;;;;;;;;5085114;28;21006;-68
2023/04/30 08:43:35;;;;;;;8.27;2.70;;;;;;;;;;5086456;28;20449;-68
2023/04/30 08:46:02;;;;;;;8.50;3.00;;;;;;;;;;5091573;28;20511;-67
2023/04/30 08:48:29;;;;;;;5.77;3.10;;;;;;;;;;5082179;28;20529;-68
2023/04/30 08:50:56;;;;;;;5.87;2.70;;;;;;;;;;5085326;28;20471;-68
2023/04/30 08:53:23;;;;;;;5.73;3.30;;;;;;;;;;5082658;28;20473;-68
2023/04/30 08:55:50;;;;;;;6.57;3.27;;;;;;;;;;5080424;28;20518;-68
2023/04/30 08:58:16;;;;;;;6.43;2.20;;;;;;;;;;5091348;28;20463;-68
2023/04/30 09:00:43;;;;;;;11.63;2.40;;;;;;;;;;5092276;28;20537;-69
2023/04/30 09:03:09;;;;;;;10.00;3.70;;;;;;;;;;5086333;28;20960;-68
2023/04/30 09:05:37;;;;;;;7.10;3.17;;;;;;;;;;5081446;28;21022;-68
2023/04/30 09:08:03;;;;;;;4.90;2.77;;;;;;;;;;5084404;28;20517;-68
2023/04/30 09:10:33;;;;;;;5.10;2.40;;;;;;;;;;5080478;28;20479;-68
2023/04/30 09:13:00;;;;;;;9.90;3.17;;;;;;;;;;5084703;28;20444;-68
2023/04/30 09:15:26;;;;;;;9.00;3.07;;;;;;;;;;5082440;28;20479;-68
2023/04/30 09:18:05;;;;;;;7.20;2.87;;;;;;;;;;5082732;28;20456;-67
2023/04/30 09:20:32;;;;;;;11.67;3.07;;;;;;;;;;5081578;28;20498;-68
2023/04/30 09:23:05;;;;;;;5.47;2.90;;;;;;;;;;5085067;28;20955;-68
2023/04/30 09:25:40;;;;;;;7.43;3.17;;;;;;;;;;5077657;28;20468;-68
2023/04/30 09:28:10;;;;;;;5.17;2.93;;;;;;;;;;5088826;28;20988;-69
2023/04/30 09:30:36;;;;;;;5.50;2.40;;;;;;;;;;5081145;28;20475;-68
2023/04/30 09:33:03;;;;;;;9.80;3.67;;;;;;;;;;5064563;28;20437;-68
2023/04/30 09:35:31;;;;;;;6.37;2.67;;;;;;;;;;5063212;28;20532;-69
2023/04/30 09:37:59;;;;;;;6.53;2.70;;;;;;;;;;5060295;28;20495;-70
2023/04/30 09:40:32;;;;;;;8.90;3.17;;;;;;;;;;5059041;28;20496;-69
2023/04/30 09:43:00;;;;;;;8.70;3.23;;;;;;;;;;5062505;28;20487;-69
2023/04/30 09:45:26;;;;;;;5.43;3.00;;;;;;;;;;5059127;28;20711;-68
2023/04/30 09:47:53;;;;;;;7.23;3.50;;;;;;;;;;5063692;28;20467;-69
2023/04/30 09:50:20;;;;;;;10.23;3.23;;;;;;;;;;5059570;28;20552;-68
2023/04/30 09:52:48;;;;;;;6.90;2.87;;;;;;;;;;5060153;28;20461;-68
2023/04/30 09:55:15;;;;;;;9.70;2.80;;;;;;;;;;5059805;28;20510;-69
2023/04/30 09:57:41;;;;;;;5.93;2.80;;;;;;;;;;5060197;28;20492;-69
2023/04/30 10:00:10;;;;;;;7.13;2.90;;;;;;;;;;5058001;28;20516;-67
2023/04/30 10:02:37;;;;;;;8.93;3.03;;;;;;;;;;5059902;28;21033;-69
2023/04/30 10:05:04;;;;;;;6.87;2.80;;;;;;;;;;5059790;28;20433;-69
2023/04/30 10:07:31;;;;;;;5.77;2.80;;;;;;;;;;5079379;28;20507;-69
2023/04/30 10:09:59;;;;;;;5.47;2.63;;;;;;;;;;5087544;28;20463;-68
2023/04/30 10:12:27;;;;;;;7.50;2.80;;;;;;;;;;5078952;28;20522;-69
2023/04/30 10:14:55;;;;;;;6.97;2.70;;;;;;;;;;5089157;28;20440;-68
2023/04/30 10:17:24;;;;;;;4.33;3.00;;;;;;;;;;5080647;28;20509;-68
2023/04/30 10:19:52;;;;;;;7.00;2.83;;;;;;;;;;5079806;28;20785;-69
2023/04/30 10:22:19;;;;;;;4.97;3.10;;;;;;;;;;5079462;28;20503;-68
2023/04/30 10:24:46;;;;;;;4.87;2.60;;;;;;;;;;5077896;28;20448;-70
2023/04/30 10:27:12;;;;;;;6.00;2.37;;;;;;;;;;5078317;28;20501;-69
2023/04/30 10:29:39;;;;;;;9.17;2.50;;;;;;;;;;5079616;28;20447;-70
2023/04/30 10:32:06;;;;;;;7.53;3.17;;;;;;;;;;5078945;28;20522;-69
2023/04/30 10:34:38;;;;;;;6.17;3.00;;;;;;;;;;5079204;28;20448;-68
2023/04/30 10:37:06;;;;;;;3.87;2.60;;;;;;;;;;5075011;28;20479;-69
2023/04/30 10:39:32;;;;;;;7.13;2.70;;;;;;;;;;5088160;28;20467;-68
2023/04/30 10:42:02;;;;;;;6.73;2.13;;;;;;;;;;5080876;28;20587;-69
2023/04/30 10:44:32;;;;;;;4.13;2.33;;;;;;;;;;5076543;28;20760;-68
2023/04/30 10:46:58;;;;;;;5.70;2.83;;;;;;;;;;5077510;28;20542;-69
2023/04/30 10:49:25;;;;;;;3.60;2.30;;;;;;;;;;5077635;28;20655;-69
2023/04/30 10:51:55;;;;;;;7.87;3.70;;;;;;;;;;5077883;28;20494;-69
2023/04/30 10:54:25;;;;;;;9.60;3.00;;;;;;;;;;5079370;28;20494;-69
2023/04/30 10:56:51;;;;;;;8.50;3.73;;;;;;;;;;5077251;28;21073;-68
2023/04/30 10:59:18;;;;;;;5.67;3.30;;;;;;;;;;5080317;28;20461;-69
2023/04/30 11:02:00;;;;;;;7.40;2.90;;;;;;;;;;5076683;28;20479;-68
2023/04/30 11:04:26;;;;;;;5.07;3.10;;;;;;;;;;5078349;28;20497;-64
2023/04/30 11:07:02;;;;;;;4.87;3.27;;;;;;;;;;5076506;28;20488;-64
2023/04/30 11:09:36;;;;;;;6.17;2.60;;;;;;;;;;5078213;28;20937;-64
2023/04/30 11:12:03;;;;;;;10.70;2.77;;;;;;;;;;5077362;28;20494;-64
2023/04/30 11:14:32;;;;;;;8.57;2.93;;;;;;;;;;5077894;28;20444;-64
2023/04/30 11:16:59;;;;;;;6.03;2.90;;;;;;;;;;5077292;28;20479;-64
2023/04/30 11:19:27;;;;;;;4.90;2.57;;;;;;;;;;5080532;28;20505;-64
2023/04/30 11:22:08;;;;;;;4.70;2.43;;;;;;;;;;5078050;28;20514;-64
2023/04/30 11:25:01;;;;;;;4.50;3.20;;;;;;;;;;5082136;28;20469;-64
2023/04/30 11:27:28;;;;;;;5.80;2.93;;;;;;;;;;5073234;28;20969;-64
2023/04/30 11:29:55;;;;;;;7.97;3.77;;;;;;;;;;5078167;28;20468;-64
2023/04/30 11:32:22;;;;;;;6.53;2.63;;;;;;;;;;5079280;28;20507;-64
2023/04/30 11:34:49;;;;;;;4.13;2.40;;;;;;;;;;5080356;28;20486;-64
2023/04/30 11:37:18;;;;;;;2.80;2.10;;;;;;;;;;5078198;28;20566;-64
2023/04/30 11:39:46;;;;;;;3.70;2.07;;;;;;;;;;5077214;28;20524;-64
2023/04/30 11:42:17;;;;;;;4.83;2.20;;;;;;;;;;5075479;28;20513;-65
2023/04/30 11:44:44;;;;;;;4.77;2.20;;;;;;;;;;5077656;28;20455;-65
2023/04/30 11:47:10;;;;;;;6.30;1.90;;;;;;;;;;5086714;28;20486;-65
2023/04/30 11:49:37;;;;;;;4.23;2.40;;;;;;;;;;5073750;28;20479;-64
2023/04/30 11:52:03;;;;;;;5.30;2.23;;;;;;;;;;5077655;28;20499;-64
2023/04/30 11:54:31;;;;;;;3.63;2.10;;;;;;;;;;5078862;28;20480;-64
2023/04/30 11:57:02;;;;;;;4.07;2.20;;;;;;;;;;5078879;28;20511;-64
2023/04/30 11:59:30;;;;;;;3.43;2.13;;;;;;;;;;5083493;28;20896;-64
2023/04/30 12:01:57;;;;;;;5.33;2.50;;;;;;;;;;5079245;28;20492;-65
2023/04/30 12:04:24;;;;;;;4.13;1.80;;;;;;;;;;5081497;28;20483;-65
2023/04/30 12:06:50;;;;;;;3.53;1.93;;;;;;;;;;5078849;28;20491;-65
2023/04/30 12:09:17;;;;;;;5.17;1.70;;;;;;;;;;5079179;28;20517;-65
2023/04/30 12:11:43;;;;;;;6.27;2.33;;;;;;;;;;5077864;28;20479;-65
2023/04/30 12:14:10;;;;;;;4.20;2.33;;;;;;;;;;5083454;28;20476;-64
2023/04/30 12:16:43;;;;;;;5.00;2.03;;;;;;;;;;5084640;28;20479;-65
2023/04/30 12:19:09;;;;;;;4.00;2.23;;;;;;;;;;5083460;28;20501;-64
2023/04/30 12:21:36;;;;;;;6.40;2.37;;;;;;;;;;5078169;28;20522;-64
2023/04/30 12:24:02;;;;;;;5.23;2.60;;;;;;;;;;5084363;28;20450;-64
2023/04/30 12:26:34;;;;;;;3.70;1.93;;;;;;;;;;5082301;28;20471;-65
2023/04/30 12:29:02;;;;;;;3.50;2.23;;;;;;;;;;5089091;28;20478;-65
2023/04/30 12:31:31;;;;;;;3.23;2.03;;;;;;;;;;5083168;28;20475;-65
2023/04/30 12:34:03;;;;;;;7.00;2.17;;;;;;;;;;5083577;28;20448;-63
2023/04/30 12:36:30;;;;;;;5.43;3.33;;;;;;;;;;5082308;28;20475;-65
2023/04/30 12:39:01;;;;;;;4.03;2.63;;;;;;;;;;5082443;28;20470;-63
2023/04/30 12:41:29;;;;;;;5.33;2.70;;;;;;;;;;5082203;28;20471;-63
2023/04/30 12:44:10;;;;;;;10.53;4.33;;;;;;;;;;5079678;28;20466;-64
2023/04/30 12:46:36;;;;;;;9.17;3.00;;;;;;;;;;5084410;28;20576;-70
2023/04/30 12:49:04;;;;;;;4.53;3.03;;;;;;;;;;5080223;28;20447;-65
2023/04/30 12:51:33;;;;;;;5.07;2.60;;;;;;;;;;5078936;28;20480;-67
2023/04/30 12:53:59;;;;;;;9.77;3.03;;;;;;;;;;5091422;28;20475;-67
2023/04/30 12:56:26;;;;;;;8.77;2.67;;;;;;;;;;5085385;28;21143;-66
2023/04/30 12:58:52;;;;;;;4.07;2.33;;;;;;;;;;5089607;28;20529;-66
2023/04/30 13:01:20;;;;;;;5.63;2.20;;;;;;;;;;5089955;28;21681;-67
2023/04/30 13:03:47;;;;;;;2.87;2.27;;;;;;;;;;5088772;28;20436;-66
2023/04/30 13:06:14;;;;;;;5.47;3.30;;;;;;;;;;5078738;28;20468;-66
2023/04/30 13:08:41;;;;;;;4.83;3.00;;;;;;;;;;5080012;28;20798;-66
2023/04/30 13:11:07;;;;;;;5.33;2.70;;;;;;;;;;5078630;28;20550;-67
2023/04/30 13:13:34;;;;;;;4.20;3.00;;;;;;;;;;5078588;28;20452;-66
2023/04/30 13:16:01;;;;;;;6.00;3.10;;;;;;;;;;5081186;28;20807;-66
2023/04/30 13:18:27;;;;;;;5.93;2.80;;;;;;;;;;5087195;28;22972;-66
2023/04/30 13:20:54;;;;;;;4.53;3.00;;;;;;;;;;5080781;28;20497;-66
2023/04/30 13:23:21;;;;;;;5.80;2.90;;;;;;;;;;5080095;28;20477;-66
2023/04/30 13:25:48;;;;;;;5.43;3.67;;;;;;;;;;5078690;28;20487;-67
2023/04/30 13:28:15;;;;;;;5.93;3.73;;;;;;;;;;5078527;28;20459;-66
2023/04/30 13:30:41;;;;;;;3.40;2.60;;;;;;;;;;5080550;28;20495;-67
2023/04/30 13:33:08;;;;;;;5.77;3.30;;;;;;;;;;5080835;28;20889;-66
2023/04/30 13:35:34;;;;;;;5.73;2.87;;;;;;;;;;5079378;28;20900;-66
2023/04/30 13:38:01;;;;;;;9.73;3.50;;;;;;;;;;5081536;28;20456;-67
2023/04/30 13:40:29;;;;;;;8.17;3.70;;;;;;;;;;5079596;28;20499;-66
2023/04/30 13:42:55;;;;;;;5.63;3.20;;;;;;;;;;5081864;28;20444;-67
2023/04/30 13:45:22;;;;;;;3.20;2.47;;;;;;;;;;5080763;28;20475;-66
2023/04/30 13:47:48;;;;;;;8.57;3.77;;;;;;;;;;5081636;28;20459;-67
2023/04/30 13:50:15;;;;;;;7.03;2.70;;;;;;;;;;5084764;28;20468;-66
2023/04/30 13:52:41;;;;;;;10.17;3.23;;;;;;;;;;5083156;28;20524;-66
2023/04/30 13:55:08;;;;;;;7.57;2.60;;;;;;;;;;5079677;28;20453;-66
2023/04/30 13:57:36;;;;;;;6.37;2.87;;;;;;;;;;5078205;28;20463;-67
2023/04/30 14:00:04;;;;;;;4.27;2.70;;;;;;;;;;5077782;28;20460;-69
2023/04/30 14:02:31;;;;;;;5.10;3.53;;;;;;;;;;5079097;28;20461;-70
2023/04/30 14:04:58;;;;;;;6.43;3.00;;;;;;;;;;5080400;28;20828;-69
2023/04/30 14:07:24;;;;;;;4.00;3.00;;;;;;;;;;5082740;28;21096;-70
2023/04/30 14:09:51;;;;;;;6.00;2.83;;;;;;;;;;5083178;28;20472;-69
2023/04/30 14:12:18;;;;;;;4.40;2.50;;;;;;;;;;5082553;28;20503;-69
2023/04/30 14:14:46;;;;;;;5.20;2.93;;;;;;;;;;5086784;28;20451;-69
2023/04/30 14:17:12;;;;;;;4.93;3.27;;;;;;;;;;5081171;28;20493;-69
2023/04/30 14:19:39;;;;;;;5.13;2.17;;;;;;;;;;5081131;28;20463;-69
2023/04/30 14:22:05;;;;;;;4.93;2.27;;;;;;;;;;5098621;28;20524;-69
2023/04/30 14:24:32;;;;;;;8.30;2.50;;;;;;;;;;5081326;28;20455;-69
2023/04/30 14:27:00;;;;;;;6.80;2.90;;;;;;;;;;5079449;28;20751;-71
2023/04/30 14:29:27;;;;;;;7.33;2.17;;;;;;;;;;5081758;28;20495;-69
2023/04/30 14:31:54;;;;;;;7.10;2.53;;;;;;;;;;5082477;28;20816;-69
2023/04/30 14:34:21;;;;;;;8.50;3.30;;;;;;;;;;5083529;28;20448;-68
2023/04/30 14:36:47;;;;;;;7.37;2.67;;;;;;;;;;5082824;28;20486;-69
2023/04/30 14:39:14;;;;;;;3.70;2.20;;;;;;;;;;5081968;28;20451;-69